Larksville, Pennsylvania
Current Conditions -  °F | °C
As of 4:22 PM on Saturday 22 Nov 2014 (Local Time) from KAVP Reporting Station
Overcast Overcast  
Wind Chill: 33°   Ceiling: 2800
Heat Index: 39°   Visibility: 10mi
Dew Point: 14°   Wind: 8mph
Humidity: 36%   Direction: 240°WSW
Pressure: 30.2"   Gusts: NA
Location:  41.2768°N, 75.8997°W
Report Text: KAVP 222122Z 24007KT 10SM BKN028 OVC038 04/M10 A3020 RMK AO2 RAB04E16 P0000 T00391100
Loading
Personal Weather Stations






























Interactive Weather Map New forecast layout! Learn more

10-Day Weather Forecast

Advertisements
Track Severe Weather on mobile